createdAt,value
2022-08-08T00:00:55.026Z,8.00
2022-08-08T00:00:55.166Z,11.80
2022-08-08T00:01:06.546Z,6.50
2022-08-08T00:02:04.131Z,6.90
2022-08-08T00:02:31.138Z,6.90
2022-08-08T00:02:43.038Z,9.00
2022-08-08T00:03:31.411Z,8.20
2022-08-08T00:03:53.195Z,6.00
2022-08-08T00:04:28.033Z,6.70
2022-08-08T00:05:02.930Z,6.70
2022-08-08T00:05:44.351Z,7.20
2022-08-08T00:06:13.430Z,8.60
2022-08-08T00:06:48.869Z,6.70
2022-08-08T00:07:23.867Z,10.60
2022-08-08T00:07:58.958Z,10.70
2022-08-08T00:08:34.152Z,6.10
2022-08-08T00:09:09.263Z,6.20
2022-08-08T00:09:44.386Z,6.60
2022-08-08T00:10:22.218Z,6.80
2022-08-08T00:10:54.704Z,7.40
2022-08-08T00:11:47.001Z,8.50
2022-08-08T00:12:09.303Z,7.40
2022-08-08T00:12:41.638Z,7.70
2022-08-08T00:13:20.519Z,9.20
2022-08-08T00:14:14.972Z,5.70
2022-08-08T00:14:59.177Z,8.90
2022-08-08T00:15:05.193Z,9.80
2022-08-08T00:15:56.434Z,6.30
2022-08-08T00:16:13.938Z,6.90
2022-08-08T00:16:49.252Z,7.80
2022-08-08T00:17:24.443Z,6.50
2022-08-08T00:18:02.992Z,9.00
2022-08-08T00:18:34.825Z,7.80
2022-08-08T00:19:10.242Z,7.30
2022-08-08T00:19:46.709Z,12.20
2022-08-08T00:20:20.734Z,12.20
2022-08-08T00:20:56.157Z,10.70
2022-08-08T00:21:39.832Z,10.30
2022-08-08T00:22:06.573Z,8.60
2022-08-08T00:22:42.027Z,8.40
2022-08-08T00:23:17.557Z,6.70
2022-08-08T00:23:52.734Z,6.70
2022-08-08T00:24:29.969Z,6.60
2022-08-08T00:25:03.168Z,7.30
2022-08-08T00:25:46.567Z,8.50
2022-08-08T00:26:26.161Z,7.40
2022-08-08T00:26:56.365Z,6.20
2022-08-08T00:27:32.827Z,7.30
2022-08-08T00:28:07.036Z,9.40
2022-08-08T00:28:42.568Z,7.70
2022-08-08T00:29:44.223Z,7.50
2022-08-08T00:29:52.990Z,6.30
2022-08-08T00:30:28.309Z,7.80
2022-08-08T00:32:20.453Z,7.80
2022-08-08T00:32:21.135Z,7.60
2022-08-08T00:32:21.408Z,6.80
2022-08-08T00:32:49.054Z,7.80
2022-08-08T00:33:24.399Z,7.60
2022-08-08T00:34:17.187Z,6.80
2022-08-08T00:34:34.831Z,11.00
2022-08-08T00:35:10.144Z,10.20
2022-08-08T00:35:48.230Z,10.00
2022-08-08T00:36:25.660Z,10.20
2022-08-08T00:36:56.117Z,8.10
2022-08-08T00:37:47.443Z,5.90
2022-08-08T00:38:06.535Z,7.30
2022-08-08T00:38:44.527Z,7.40
2022-08-08T00:41:07.007Z,7.00
2022-08-08T00:41:07.521Z,8.20
2022-08-08T00:41:07.631Z,8.80
2022-08-08T00:41:11.396Z,8.60
2022-08-08T00:41:45.259Z,6.20
2022-08-08T00:42:31.535Z,6.70
2022-08-08T00:42:48.787Z,6.60
2022-08-08T00:43:23.878Z,7.50
2022-08-08T00:44:00.861Z,9.80
2022-08-08T00:44:34.218Z,7.60
2022-08-08T00:45:21.385Z,7.30
2022-08-08T00:45:44.720Z,7.20
2022-08-08T00:46:20.028Z,5.40
2022-08-08T00:46:57.252Z,7.40
2022-08-08T00:47:37.068Z,8.50
2022-08-08T00:48:06.771Z,8.60
2022-08-08T00:48:41.520Z,7.00
2022-08-08T00:49:22.879Z,7.30
2022-08-08T00:49:58.949Z,7.40
2022-08-08T00:50:27.286Z,8.60
2022-08-08T00:51:02.575Z,9.60
2022-08-08T00:51:38.946Z,7.60
2022-08-08T00:52:19.660Z,6.60
2022-08-08T00:52:51.499Z,7.60
2022-08-08T00:53:23.963Z,7.40
2022-08-08T00:54:04.453Z,7.00
2022-08-08T00:54:34.762Z,6.40
2022-08-08T00:55:09.965Z,6.70
2022-08-08T00:55:52.518Z,7.20
2022-08-08T00:56:20.206Z,8.20
2022-08-08T00:56:55.422Z,8.40
2022-08-08T00:57:36.136Z,6.60
2022-08-08T00:58:05.677Z,7.10
2022-08-08T00:58:43.772Z,7.40
2022-08-08T00:59:18.711Z,6.10
2022-08-08T00:59:51.286Z,8.10
2022-08-08T01:00:26.510Z,9.00
2022-08-08T01:01:01.985Z,6.50
2022-08-08T01:01:38.960Z,7.50
2022-08-08T01:03:15.579Z,8.30
2022-08-08T01:03:59.003Z,9.40
2022-08-08T01:04:01.763Z,9.20
2022-08-08T01:04:04.473Z,8.60
2022-08-08T01:04:33.661Z,9.20
2022-08-08T01:05:09.499Z,6.30
2022-08-08T01:05:58.604Z,6.70
2022-08-08T01:06:27.300Z,8.40
2022-08-08T01:07:00.188Z,7.00
2022-08-08T01:07:34.812Z,9.10
2022-08-08T01:08:05.933Z,7.10
2022-08-08T01:08:46.729Z,7.70
2022-08-08T01:09:35.904Z,7.00
2022-08-08T01:09:52.428Z,8.80
2022-08-08T01:10:27.561Z,7.00
2022-08-08T01:11:02.768Z,9.30
2022-08-08T01:11:37.902Z,10.10
2022-08-08T01:12:13.101Z,8.90
2022-08-08T01:12:48.127Z,7.30
2022-08-08T01:13:44.067Z,7.20
2022-08-08T01:13:58.970Z,9.50
2022-08-08T01:14:53.110Z,8.30
2022-08-08T01:15:09.301Z,8.40
2022-08-08T01:15:47.337Z,11.70
2022-08-08T01:16:20.062Z,10.70
2022-08-08T01:16:55.369Z,8.90
2022-08-08T01:17:51.513Z,10.00
2022-08-08T01:18:05.813Z,9.00
2022-08-08T01:18:52.626Z,11.40
2022-08-08T01:19:42.248Z,11.50
2022-08-08T01:20:02.021Z,5.90
2022-08-08T01:20:26.812Z,8.40
2022-08-08T01:21:01.843Z,9.90
2022-08-08T01:22:10.077Z,8.50
2022-08-08T01:22:15.635Z,8.20
2022-08-08T01:22:47.359Z,9.40
2022-08-08T01:24:05.447Z,9.10
2022-08-08T01:24:06.238Z,10.20
2022-08-08T01:24:33.093Z,10.00
2022-08-08T01:25:08.515Z,10.10
2022-08-08T01:25:43.418Z,8.90
2022-08-08T01:26:18.818Z,8.10
2022-08-08T01:26:54.128Z,9.10
2022-08-08T01:27:33.151Z,8.00
2022-08-08T01:28:04.554Z,6.90
2022-08-08T01:28:39.553Z,9.00
2022-08-08T01:29:14.628Z,13.20
2022-08-08T01:29:58.795Z,11.20
2022-08-08T01:30:25.360Z,10.40
2022-08-08T01:31:00.581Z,9.50
2022-08-08T01:32:06.354Z,9.60
2022-08-08T01:32:15.507Z,10.20
2022-08-08T01:32:46.040Z,9.90
2022-08-08T01:33:24.247Z,7.00
2022-08-08T01:34:01.218Z,8.60
2022-08-08T01:34:31.880Z,8.00
2022-08-08T01:35:11.230Z,7.50
2022-08-08T01:35:42.307Z,9.20
2022-08-08T01:36:17.510Z,8.70
2022-08-08T01:36:52.727Z,11.20
2022-08-08T01:37:56.848Z,14.90
2022-08-08T01:38:03.638Z,11.70
2022-08-08T01:38:39.073Z,9.00
2022-08-08T01:39:23.497Z,7.10
2022-08-08T01:39:49.911Z,8.30
2022-08-08T01:40:24.938Z,9.30
2022-08-08T01:41:00.038Z,8.90
2022-08-08T01:41:38.246Z,8.40
2022-08-08T01:42:10.576Z,8.00
2022-08-08T01:42:45.684Z,8.30
2022-08-08T01:43:20.872Z,11.30
2022-08-08T01:43:56.181Z,12.60
2022-08-08T01:44:31.590Z,12.20
2022-08-08T01:45:09.991Z,8.40
2022-08-08T01:45:42.099Z,8.30
2022-08-08T01:46:17.413Z,8.90
2022-08-08T01:46:52.902Z,8.10
2022-08-08T01:48:15.507Z,8.20
2022-08-08T01:48:23.806Z,10.30
2022-08-08T01:48:38.521Z,13.40
2022-08-08T01:49:14.145Z,16.80
2022-08-08T01:49:49.087Z,14.80
2022-08-08T01:50:25.460Z,10.90
2022-08-08T01:50:59.435Z,10.80
2022-08-08T01:52:33.615Z,10.40
2022-08-08T01:53:29.059Z,10.20
2022-08-08T01:54:04.332Z,18.10
2022-08-08T01:55:16.844Z,13.90
2022-08-08T01:55:17.773Z,11.10
2022-08-08T01:55:19.162Z,10.00
2022-08-08T01:56:04.566Z,8.40
2022-08-08T01:56:28.946Z,9.40
2022-08-08T01:56:29.201Z,9.60
2022-08-08T01:56:52.332Z,6.90
2022-08-08T01:58:04.222Z,12.10
2022-08-08T01:58:11.755Z,12.80
2022-08-08T01:58:39.750Z,11.80
2022-08-08T01:59:13.259Z,12.50
2022-08-08T02:00:01.640Z,7.20
2022-08-08T02:00:23.988Z,9.00
2022-08-08T02:00:59.346Z,11.70
2022-08-08T02:01:54.575Z,9.90
2022-08-08T02:02:10.029Z,9.10
2022-08-08T02:02:45.328Z,9.20
2022-08-08T02:03:54.470Z,10.60
2022-08-08T02:03:58.140Z,11.60
2022-08-08T02:04:30.712Z,12.30
2022-08-08T02:05:05.901Z,12.50
2022-08-08T02:05:56.374Z,12.60
2022-08-08T02:06:33.129Z,11.50
2022-08-08T02:06:52.006Z,11.60
2022-08-08T02:07:26.796Z,10.20
2022-08-08T02:08:02.038Z,12.10
2022-08-08T02:08:37.551Z,13.00
2022-08-08T02:09:17.664Z,10.70
2022-08-08T02:10:04.357Z,8.90
2022-08-08T02:10:30.234Z,11.00
2022-08-08T02:10:58.753Z,10.90
2022-08-08T02:11:52.651Z,12.50
2022-08-08T02:12:12.611Z,11.90
2022-08-08T02:12:44.995Z,9.30
2022-08-08T02:13:53.092Z,10.00
2022-08-08T02:13:55.753Z,11.10
2022-08-08T02:14:30.605Z,10.40
2022-08-08T02:15:11.096Z,12.70
2022-08-08T02:15:41.089Z,10.60
2022-08-08T02:16:20.756Z,13.80
2022-08-08T02:16:51.631Z,11.30
2022-08-08T02:17:26.956Z,11.80
2022-08-08T02:18:02.167Z,11.00
2022-08-08T02:18:37.644Z,12.50
2022-08-08T02:19:41.720Z,8.90
2022-08-08T02:20:07.412Z,13.80
2022-08-08T02:21:01.737Z,13.80
2022-08-08T02:21:01.933Z,10.20
2022-08-08T02:21:35.042Z,13.20
2022-08-08T02:22:10.161Z,10.80
2022-08-08T02:22:52.298Z,8.90
2022-08-08T02:23:21.090Z,8.50
2022-08-08T02:23:56.140Z,8.60
2022-08-08T02:24:31.362Z,12.10
2022-08-08T02:25:07.153Z,15.30
2022-08-08T02:25:47.018Z,12.20
2022-08-08T02:26:16.828Z,11.70
2022-08-08T02:26:52.242Z,12.30
2022-08-08T02:27:27.162Z,11.20
2022-08-08T02:28:02.462Z,9.70
2022-08-08T02:28:37.718Z,14.00
2022-08-08T02:29:18.786Z,14.50
2022-08-08T02:29:51.771Z,10.90
2022-08-08T02:30:25.398Z,11.90
2022-08-08T02:31:01.819Z,15.90
2022-08-08T02:31:58.281Z,13.80
2022-08-08T02:32:09.144Z,9.30
2022-08-08T02:32:44.673Z,11.60
2022-08-08T02:33:21.527Z,14.30
2022-08-08T02:34:07.178Z,12.70
2022-08-08T02:34:33.177Z,10.80
2022-08-08T02:35:07.791Z,10.20
2022-08-08T02:36:03.842Z,9.80
2022-08-08T02:36:16.330Z,13.10
2022-08-08T02:36:51.147Z,14.00
2022-08-08T02:37:52.632Z,11.80
2022-08-08T02:38:02.170Z,12.00
2022-08-08T02:38:37.596Z,15.70
2022-08-08T02:39:40.678Z,14.70
2022-08-08T02:40:00.281Z,9.40
2022-08-08T02:40:23.628Z,11.50
2022-08-08T02:40:58.948Z,11.70
2022-08-08T02:42:03.505Z,21.30
2022-08-08T02:42:10.620Z,16.50
2022-08-08T02:42:44.923Z,17.40
2022-08-08T02:44:36.931Z,15.30
2022-08-08T02:44:37.153Z,14.20
2022-08-08T02:44:38.767Z,15.40
2022-08-08T02:45:09.673Z,13.30
2022-08-08T02:45:54.317Z,9.70
2022-08-08T02:46:16.754Z,11.80
2022-08-08T02:46:52.370Z,14.60
2022-08-08T02:47:27.343Z,11.30
2022-08-08T02:48:02.642Z,15.20
2022-08-08T02:48:37.854Z,15.60
2022-08-08T02:49:13.384Z,9.70
2022-08-08T02:49:51.364Z,8.90
2022-08-08T02:50:23.500Z,11.30
2022-08-08T02:50:58.692Z,12.00
2022-08-08T02:51:46.778Z,9.30
2022-08-08T02:52:32.463Z,11.50
2022-08-08T02:52:51.357Z,15.20
2022-08-08T02:53:19.870Z,15.30
2022-08-08T02:53:54.990Z,16.30
2022-08-08T02:54:30.290Z,14.10
2022-08-08T02:55:05.424Z,13.80
2022-08-08T02:55:40.729Z,10.60
2022-08-08T02:56:16.028Z,13.70
2022-08-08T02:56:51.259Z,13.80
2022-08-08T02:57:26.867Z,12.00
2022-08-08T02:58:01.979Z,12.40
2022-08-08T02:58:37.395Z,15.30
2022-08-08T02:59:26.299Z,14.70
2022-08-08T02:59:58.460Z,18.40
2022-08-08T03:00:27.035Z,15.20
2022-08-08T03:00:58.787Z,12.70
2022-08-08T03:01:40.016Z,15.70
2022-08-08T03:02:09.537Z,14.50
2022-08-08T03:02:50.530Z,16.10
2022-08-08T03:05:00.656Z,12.80
2022-08-08T03:05:04.610Z,10.30
2022-08-08T03:05:05.295Z,11.10
2022-08-08T03:05:09.427Z,11.00
2022-08-08T03:05:45.421Z,12.10
2022-08-08T03:06:34.454Z,13.80
2022-08-08T03:06:50.924Z,12.00
2022-08-08T03:07:26.122Z,10.90
2022-08-08T03:08:01.326Z,13.60
2022-08-08T03:08:37.225Z,16.60
2022-08-08T03:09:12.812Z,19.50
2022-08-08T03:09:48.244Z,17.00
2022-08-08T03:10:33.484Z,15.50
2022-08-08T03:10:58.994Z,12.40
2022-08-08T03:12:01.767Z,15.10
2022-08-08T03:12:14.242Z,12.90
2022-08-08T03:13:01.812Z,14.90
2022-08-08T03:15:54.629Z,12.90
2022-08-08T03:15:56.574Z,12.90
2022-08-08T03:15:57.090Z,12.90
2022-08-08T03:15:57.762Z,11.60
2022-08-08T03:15:59.223Z,10.70
2022-08-08T03:16:34.348Z,12.00
2022-08-08T03:16:51.035Z,14.80
2022-08-08T03:17:39.432Z,19.10
2022-08-08T03:18:06.682Z,15.60
2022-08-08T03:18:37.038Z,12.90
2022-08-08T03:19:12.743Z,15.70
2022-08-08T03:19:51.031Z,15.90
2022-08-08T03:20:23.257Z,11.90
2022-08-08T03:20:58.384Z,12.20
2022-08-08T03:21:41.028Z,11.70
2022-08-08T03:22:38.084Z,11.90
2022-08-08T03:22:44.128Z,11.30
2022-08-08T03:23:19.338Z,12.60
2022-08-08T03:23:59.541Z,14.70
2022-08-08T03:24:29.984Z,13.80
2022-08-08T03:25:05.178Z,12.40
2022-08-08T03:25:40.694Z,15.70
2022-08-08T03:26:15.821Z,14.10
2022-08-08T03:26:51.151Z,12.80
2022-08-08T03:27:27.245Z,12.00
2022-08-08T03:28:01.352Z,12.00
2022-08-08T03:28:36.386Z,15.00
2022-08-08T03:29:20.505Z,16.90
2022-08-08T03:29:55.258Z,14.80
2022-08-08T03:30:21.838Z,16.40
2022-08-08T03:31:21.925Z,15.70
2022-08-08T03:31:38.066Z,17.70
2022-08-08T03:32:07.378Z,16.40
2022-08-08T03:32:42.415Z,12.90
2022-08-08T03:33:56.232Z,14.20
2022-08-08T03:33:56.355Z,14.30
2022-08-08T03:34:28.123Z,13.60
2022-08-08T03:35:04.010Z,15.20
2022-08-08T03:35:39.071Z,15.60
2022-08-08T03:36:19.563Z,12.40
2022-08-08T03:36:49.746Z,14.40
2022-08-08T03:38:54.009Z,18.50
2022-08-08T03:38:54.684Z,13.40
2022-08-08T03:38:57.989Z,14.00
2022-08-08T03:39:14.680Z,19.20
2022-08-08T03:39:52.054Z,18.10
2022-08-08T03:40:30.316Z,20.00
2022-08-08T03:40:56.823Z,17.60
2022-08-08T03:42:11.447Z,16.20
2022-08-08T03:42:27.196Z,16.10
2022-08-08T03:42:45.736Z,15.50
2022-08-08T03:43:20.145Z,16.30
2022-08-08T03:43:53.645Z,13.50
2022-08-08T03:44:28.667Z,13.90
2022-08-08T03:46:04.750Z,12.40
2022-08-08T03:46:07.145Z,11.40
2022-08-08T03:46:14.099Z,16.00
2022-08-08T03:46:49.370Z,12.40
2022-08-08T03:47:25.140Z,12.80
2022-08-08T03:48:00.186Z,17.50
2022-08-08T03:49:09.774Z,17.60
2022-08-08T03:49:57.917Z,15.50
2022-08-08T03:49:59.049Z,14.90
2022-08-08T03:50:24.562Z,12.00
2022-08-08T03:50:56.615Z,14.30
2022-08-08T03:51:50.278Z,16.00
2022-08-08T03:52:07.858Z,15.80
2022-08-08T03:52:45.133Z,12.30
2022-08-08T03:53:23.988Z,13.20
2022-08-08T03:53:53.377Z,13.40
2022-08-08T03:54:52.483Z,14.40
2022-08-08T03:55:10.522Z,15.30
2022-08-08T03:55:57.287Z,18.90
2022-08-08T03:56:31.492Z,14.00
2022-08-08T03:56:49.700Z,13.70
2022-08-08T03:58:30.877Z,14.40
2022-08-08T03:58:33.515Z,15.20
2022-08-08T03:58:37.739Z,16.00
2022-08-08T03:59:22.899Z,15.70
2022-08-08T04:00:02.898Z,16.00
2022-08-08T04:00:21.069Z,12.70
2022-08-08T04:01:20.706Z,12.90
2022-08-08T04:01:37.526Z,17.30
2022-08-08T04:02:31.688Z,15.30
2022-08-08T04:02:51.864Z,13.60
2022-08-08T04:03:19.278Z,15.60
2022-08-08T04:03:58.702Z,19.20
2022-08-08T04:04:30.989Z,23.90
2022-08-08T04:05:09.981Z,18.30
2022-08-08T04:05:49.818Z,15.60
2022-08-08T04:06:15.854Z,14.70
2022-08-08T04:06:51.171Z,13.90
2022-08-08T04:07:26.623Z,19.30
2022-08-08T04:08:02.141Z,19.60
2022-08-08T04:08:37.538Z,16.10
2022-08-08T04:09:12.485Z,21.20
2022-08-08T04:10:00.405Z,21.50
2022-08-08T04:10:23.514Z,15.70
2022-08-08T04:11:00.015Z,14.80
2022-08-08T04:11:48.063Z,17.00
2022-08-08T04:12:09.394Z,16.90
2022-08-08T04:12:44.519Z,17.30
2022-08-08T04:13:19.842Z,16.70
2022-08-08T04:14:04.358Z,20.90
2022-08-08T04:14:34.764Z,18.20
2022-08-08T04:15:05.799Z,12.40
2022-08-08T04:15:54.871Z,10.00
2022-08-08T04:16:18.598Z,14.30
2022-08-08T04:16:51.590Z,15.40
2022-08-08T04:17:46.361Z,16.00
2022-08-08T04:18:02.491Z,16.70
2022-08-08T04:18:44.717Z,12.80
2022-08-08T04:19:23.527Z,14.20
2022-08-08T04:19:48.370Z,15.10
2022-08-08T04:20:28.693Z,13.10
2022-08-08T04:20:58.937Z,15.90
2022-08-08T04:21:38.002Z,16.20
2022-08-08T04:22:09.559Z,15.40
2022-08-08T04:22:44.872Z,15.90
2022-08-08T04:23:19.979Z,17.20
2022-08-08T04:24:11.796Z,16.40
2022-08-08T04:24:31.319Z,15.60
2022-08-08T04:25:05.842Z,13.30
2022-08-08T04:25:41.284Z,15.40
2022-08-08T04:26:16.393Z,15.70
2022-08-08T04:26:57.363Z,14.40
2022-08-08T04:28:03.053Z,15.40
2022-08-08T04:28:36.216Z,16.30
2022-08-08T04:28:41.584Z,17.10
2022-08-08T04:29:13.082Z,14.50
2022-08-08T04:29:55.283Z,11.40
2022-08-08T04:30:23.511Z,17.50
2022-08-08T04:30:58.733Z,18.20
2022-08-08T04:31:59.658Z,15.40
2022-08-08T04:32:10.696Z,18.80
2022-08-08T04:32:46.950Z,18.90
2022-08-08T04:33:20.475Z,15.70
2022-08-08T04:33:55.662Z,19.00
2022-08-08T04:34:32.233Z,18.40
2022-08-08T04:35:06.656Z,15.50
2022-08-08T04:35:41.859Z,14.70
2022-08-08T04:36:17.073Z,18.00
2022-08-08T04:36:52.472Z,15.90
2022-08-08T04:37:32.224Z,17.10
2022-08-08T04:38:02.960Z,17.20
2022-08-08T04:38:38.604Z,14.70
2022-08-08T04:40:03.608Z,14.50
2022-08-08T04:40:05.462Z,11.90
2022-08-08T04:40:25.288Z,18.60
2022-08-08T04:40:59.436Z,20.40
2022-08-08T04:41:36.695Z,14.40
2022-08-08T04:42:11.361Z,14.50
2022-08-08T04:42:46.707Z,16.90
2022-08-08T04:43:19.914Z,16.50
2022-08-08T04:43:57.193Z,14.00
2022-08-08T04:44:30.039Z,21.00
2022-08-08T04:45:05.282Z,15.70
2022-08-08T04:45:40.462Z,22.60
2022-08-08T04:46:15.656Z,25.00
2022-08-08T04:46:52.517Z,16.50
2022-08-08T04:47:26.398Z,13.30
2022-08-08T04:48:01.889Z,19.00
2022-08-08T04:48:36.915Z,17.00
2022-08-08T04:49:12.218Z,27.10
2022-08-08T04:50:01.126Z,24.30
2022-08-08T04:50:24.769Z,15.60
2022-08-08T04:50:58.142Z,15.90
2022-08-08T04:51:36.713Z,16.10
2022-08-08T04:52:08.761Z,15.70
2022-08-08T04:52:43.978Z,16.80
2022-08-08T04:54:37.013Z,16.20
2022-08-08T04:54:38.396Z,21.20
2022-08-08T04:54:39.110Z,21.90
2022-08-08T04:55:06.433Z,13.50
2022-08-08T04:55:55.508Z,11.10
2022-08-08T04:56:15.629Z,15.40
2022-08-08T04:56:50.850Z,14.50
2022-08-08T04:57:26.113Z,13.80
2022-08-08T04:58:01.423Z,14.80
2022-08-08T04:58:36.538Z,10.70
2022-08-08T04:59:11.834Z,16.30
2022-08-08T04:59:47.158Z,17.90
2022-08-08T05:00:22.479Z,14.10
2022-08-08T05:00:57.598Z,13.30
2022-08-08T05:01:35.375Z,17.60
2022-08-08T05:02:08.139Z,14.30
2022-08-08T05:02:43.249Z,12.00
2022-08-08T05:04:08.304Z,13.80
2022-08-08T05:04:10.540Z,14.10
2022-08-08T05:04:29.309Z,13.60
2022-08-08T05:05:04.830Z,12.90
2022-08-08T05:05:45.219Z,10.30
2022-08-08T05:06:25.688Z,11.80
2022-08-08T05:06:52.409Z,8.80
2022-08-08T05:07:26.605Z,9.20
2022-08-08T05:08:02.738Z,9.20
2022-08-08T05:08:37.032Z,10.30
2022-08-08T05:09:12.441Z,11.10
2022-08-08T05:09:47.530Z,12.40
2022-08-08T05:10:23.055Z,12.80
2022-08-08T05:10:58.331Z,12.20
2022-08-08T05:11:38.977Z,13.20
2022-08-08T05:12:09.431Z,13.30
2022-08-08T05:13:00.327Z,9.60
2022-08-08T05:13:19.401Z,10.70
2022-08-08T05:13:57.975Z,10.90
2022-08-08T05:14:29.742Z,14.40
2022-08-08T05:15:05.266Z,13.70
2022-08-08T05:16:48.231Z,11.10
2022-08-08T05:16:50.925Z,12.90
2022-08-08T05:16:55.001Z,11.00
2022-08-08T05:17:25.870Z,16.40
2022-08-08T05:18:00.873Z,9.80
2022-08-08T05:18:36.078Z,8.60
2022-08-08T05:20:09.938Z,9.80
2022-08-08T05:20:09.938Z,10.20
2022-08-08T05:20:21.540Z,7.60
2022-08-08T05:20:56.878Z,7.90
2022-08-08T05:21:43.335Z,7.90
2022-08-08T05:22:07.289Z,11.30
2022-08-08T05:22:42.572Z,14.70
2022-08-08T05:23:17.884Z,12.40
2022-08-08T05:23:53.028Z,12.00
2022-08-08T05:24:28.453Z,8.90
2022-08-08T05:25:04.035Z,9.80
2022-08-08T05:25:41.357Z,8.80
2022-08-08T05:26:14.392Z,10.50
2022-08-08T05:26:49.479Z,13.30
2022-08-08T05:27:24.693Z,15.80
2022-08-08T05:27:59.988Z,11.20
2022-08-08T05:28:56.473Z,11.30
2022-08-08T05:29:10.961Z,12.50
2022-08-08T05:29:51.873Z,12.80
2022-08-08T05:30:28.290Z,9.80
2022-08-08T05:30:56.811Z,10.00
2022-08-08T05:32:04.888Z,10.80
2022-08-08T05:32:07.324Z,9.50
2022-08-08T05:32:42.823Z,11.10
2022-08-08T05:33:17.907Z,10.40
2022-08-08T05:33:52.973Z,11.40
2022-08-08T05:34:28.186Z,10.90
2022-08-08T05:35:05.397Z,7.60
2022-08-08T05:35:39.556Z,8.40
2022-08-08T05:36:25.524Z,8.00
2022-08-08T05:36:49.675Z,6.60
2022-08-08T05:37:28.301Z,7.80
2022-08-08T05:38:00.064Z,8.90
2022-08-08T05:38:35.574Z,8.60
2022-08-08T05:39:10.991Z,8.80
2022-08-08T05:39:46.196Z,9.70
2022-08-08T05:40:21.580Z,7.30
2022-08-08T05:40:58.088Z,8.20
2022-08-08T05:41:31.988Z,7.30
2022-08-08T05:42:07.164Z,9.50
2022-08-08T05:42:42.414Z,9.50
2022-08-08T05:44:02.800Z,7.40
2022-08-08T05:44:04.156Z,13.50
2022-08-08T05:44:31.269Z,13.10
2022-08-08T05:45:10.326Z,10.10
2022-08-08T05:45:42.840Z,7.90
2022-08-08T05:46:14.540Z,8.00
2022-08-08T05:46:51.384Z,8.10
2022-08-08T05:47:25.326Z,8.90
2022-08-08T05:48:01.713Z,9.70
2022-08-08T05:48:36.172Z,8.50
2022-08-08T05:49:11.569Z,9.90
2022-08-08T05:49:54.115Z,9.60
2022-08-08T05:50:21.883Z,12.00
2022-08-08T05:50:58.724Z,11.60
2022-08-08T05:51:48.379Z,9.30
2022-08-08T05:52:07.531Z,9.40
2022-08-08T05:52:43.274Z,8.30
2022-08-08T05:53:54.752Z,10.80
2022-08-08T05:54:27.387Z,13.40
2022-08-08T05:54:49.904Z,9.60
2022-08-08T05:55:09.002Z,11.00
2022-08-08T05:56:08.022Z,11.40
2022-08-08T05:56:15.538Z,12.50
2022-08-08T05:56:50.211Z,8.20
2022-08-08T05:58:03.916Z,9.40
2022-08-08T05:58:06.337Z,14.30
2022-08-08T05:58:36.351Z,14.10
2022-08-08T05:59:13.977Z,11.10
2022-08-08T05:59:58.711Z,10.50
2022-08-08T06:00:25.170Z,7.00
2022-08-08T06:00:57.197Z,8.80
2022-08-08T06:01:52.433Z,8.90
2022-08-08T06:02:07.527Z,10.90
2022-08-08T06:02:43.732Z,9.90
2022-08-08T06:03:29.341Z,8.20
2022-08-08T06:03:55.606Z,7.90
2022-08-08T06:04:28.670Z,7.60
2022-08-08T06:05:06.921Z,7.90
2022-08-08T06:05:38.966Z,9.00
2022-08-08T06:06:14.277Z,9.60
2022-08-08T06:06:50.332Z,13.20
2022-08-08T06:07:24.677Z,12.10
2022-08-08T06:08:02.582Z,10.20
2022-08-08T06:08:35.442Z,8.00
2022-08-08T06:09:59.105Z,11.00
2022-08-08T06:10:00.084Z,10.50
2022-08-08T06:10:24.435Z,8.10
2022-08-08T06:10:56.691Z,8.40
2022-08-08T06:11:32.107Z,8.00
2022-08-08T06:12:07.413Z,8.30
2022-08-08T06:12:42.597Z,7.80
2022-08-08T06:13:22.014Z,9.40
2022-08-08T06:13:52.996Z,12.80
2022-08-08T06:14:28.207Z,12.90
2022-08-08T06:15:03.965Z,8.20
2022-08-08T06:15:50.928Z,9.20
2022-08-08T06:16:14.218Z,10.10
2022-08-08T06:16:51.950Z,9.50
2022-08-08T06:17:50.349Z,10.80
2022-08-08T06:18:20.344Z,10.80
2022-08-08T06:18:35.389Z,7.80
2022-08-08T06:19:16.231Z,8.00
2022-08-08T06:19:46.508Z,9.30
2022-08-08T06:20:21.634Z,8.20
2022-08-08T06:20:57.278Z,5.70
2022-08-08T06:21:48.990Z,7.00
2022-08-08T06:22:33.664Z,6.40
2022-08-08T06:22:43.217Z,8.40
2022-08-08T06:23:18.323Z,9.10
2022-08-08T06:24:03.324Z,8.80
2022-08-08T06:24:30.480Z,11.00
2022-08-08T06:25:04.163Z,11.30
2022-08-08T06:26:38.396Z,9.90
2022-08-08T06:26:43.214Z,6.70
2022-08-08T06:26:57.132Z,7.90
2022-08-08T06:27:32.338Z,9.10
2022-08-08T06:28:07.560Z,6.50
2022-08-08T06:28:42.559Z,7.40
2022-08-08T06:29:48.627Z,7.00
2022-08-08T06:30:00.063Z,5.10
2022-08-08T06:30:28.568Z,8.00
2022-08-08T06:31:03.599Z,8.70
2022-08-08T06:32:09.301Z,9.20
2022-08-08T06:32:15.369Z,10.80
2022-08-08T06:32:52.506Z,8.20
2022-08-08T06:33:36.621Z,10.80
2022-08-08T06:34:26.238Z,11.50
2022-08-08T06:34:34.376Z,8.40
2022-08-08T06:36:04.378Z,8.40
2022-08-08T06:36:06.585Z,8.20
2022-08-08T06:36:20.178Z,8.10
2022-08-08T06:36:55.554Z,6.70
2022-08-08T06:37:37.306Z,9.10
2022-08-08T06:38:09.150Z,7.10
2022-08-08T06:38:42.777Z,7.80
2022-08-08T06:39:16.703Z,7.30
2022-08-08T06:39:56.503Z,9.90
2022-08-08T06:40:27.275Z,11.40
2022-08-08T06:41:02.512Z,6.20
2022-08-08T06:41:37.877Z,6.20
2022-08-08T06:42:13.255Z,7.00
2022-08-08T06:42:48.858Z,6.70
2022-08-08T06:43:30.717Z,7.80
2022-08-08T06:43:58.858Z,7.90
2022-08-08T06:44:33.857Z,7.10
2022-08-08T06:45:09.357Z,7.50
2022-08-08T06:45:44.551Z,7.00
2022-08-08T06:46:23.573Z,7.80
2022-08-08T06:46:55.155Z,7.60
2022-08-08T06:47:33.588Z,12.20
2022-08-08T06:48:05.693Z,12.40
2022-08-08T06:48:42.457Z,8.50
2022-08-08T06:49:17.121Z,7.40
2022-08-08T06:49:56.469Z,7.90
2022-08-08T06:50:31.967Z,5.70
2022-08-08T06:51:07.512Z,7.30
2022-08-08T06:51:47.177Z,8.20
2022-08-08T06:52:16.070Z,8.40
2022-08-08T06:52:50.430Z,7.40
2022-08-08T06:53:24.024Z,6.30
2022-08-08T06:54:00.741Z,8.30
2022-08-08T06:54:34.019Z,5.60
2022-08-08T06:55:09.291Z,6.90
2022-08-08T06:55:47.381Z,8.20
2022-08-08T06:56:19.690Z,7.80
2022-08-08T06:56:54.896Z,7.60
2022-08-08T06:57:44.112Z,9.10
2022-08-08T06:58:05.606Z,8.00
2022-08-08T06:58:40.685Z,5.90
2022-08-08T06:59:16.230Z,5.00
2022-08-08T07:00:10.839Z,6.00
2022-08-08T07:00:29.910Z,6.50
2022-08-08T07:01:52.272Z,6.90
2022-08-08T07:02:27.678Z,9.60
2022-08-08T07:02:27.719Z,6.20
2022-08-08T07:02:48.174Z,11.90
2022-08-08T07:03:52.728Z,10.50
2022-08-08T07:04:38.811Z,8.50
2022-08-08T07:04:40.394Z,7.30
2022-08-08T07:05:12.059Z,5.40
2022-08-08T07:05:44.373Z,6.70
2022-08-08T07:06:19.654Z,7.50
2022-08-08T07:06:54.903Z,6.40
2022-08-08T07:07:30.161Z,5.60
2022-08-08T07:08:05.193Z,4.80
2022-08-08T07:08:40.565Z,5.40
2022-08-08T07:09:18.060Z,5.70
2022-08-08T07:09:59.310Z,7.40
2022-08-08T07:10:26.779Z,6.40
2022-08-08T07:11:02.003Z,5.20
2022-08-08T07:11:50.721Z,5.40
2022-08-08T07:12:12.627Z,9.00
2022-08-08T07:12:48.260Z,9.00
2022-08-08T07:13:25.144Z,10.30
2022-08-08T07:14:00.527Z,7.70
2022-08-08T07:14:33.602Z,6.50
2022-08-08T07:15:09.140Z,9.50
2022-08-08T07:16:06.137Z,9.50
2022-08-08T07:16:18.977Z,8.30
2022-08-08T07:16:54.565Z,6.60
2022-08-08T07:17:40.087Z,8.10
2022-08-08T07:18:36.939Z,6.70
2022-08-08T07:18:41.372Z,6.50
2022-08-08T07:19:16.055Z,6.10
2022-08-08T07:19:51.149Z,6.10
2022-08-08T07:20:26.598Z,6.20
2022-08-08T07:21:02.083Z,6.50
2022-08-08T07:21:36.758Z,8.20
2022-08-08T07:22:19.183Z,8.80
2022-08-08T07:22:47.343Z,5.80
2022-08-08T07:23:23.548Z,6.00
2022-08-08T07:24:02.797Z,5.60
2022-08-08T07:24:32.976Z,7.60
2022-08-08T07:25:07.959Z,6.70
2022-08-08T07:25:44.143Z,7.10
2022-08-08T07:26:21.582Z,7.30
2022-08-08T07:26:53.799Z,7.70
2022-08-08T07:27:35.501Z,6.50
2022-08-08T07:28:07.723Z,7.20
2022-08-08T07:28:39.311Z,9.00
2022-08-08T07:29:58.746Z,7.30
2022-08-08T07:30:00.232Z,6.40
2022-08-08T07:30:25.670Z,8.20
2022-08-08T07:30:59.928Z,7.30
2022-08-08T07:31:35.786Z,6.60
2022-08-08T07:32:10.642Z,6.00
2022-08-08T07:32:45.748Z,5.90
2022-08-08T07:33:20.865Z,5.20
2022-08-08T07:33:59.402Z,7.00
2022-08-08T07:34:32.137Z,6.30
2022-08-08T07:35:08.682Z,4.20
2022-08-08T07:35:41.688Z,5.00
2022-08-08T07:36:16.882Z,5.90
2022-08-08T07:36:52.690Z,7.10
2022-08-08T07:37:28.522Z,6.90
2022-08-08T07:38:09.667Z,6.60
2022-08-08T07:38:38.401Z,9.80
2022-08-08T07:39:13.643Z,8.60
2022-08-08T07:39:57.814Z,4.50
2022-08-08T07:40:29.666Z,5.10
2022-08-08T07:41:04.500Z,5.30